Time;durP1;ratioP1;P1;durP2;ratioP2;P2;SDS_P1;SDS_P2;PMS_P1;PMS_P2;Temp;Humidity;BMP_temperature;BMP_pressure;BME280_temperature;BME280_humidity;BME280_pressure;Samples;Min_cycle;Max_cycle;Signal;HPM_P1;HPM_P2
2021/06/22 00:00:35;;;;;;;19.85;11.82;;;11.10;99.90;;;;;;5111235;27;20035;-80
2021/06/22 00:03:01;;;;;;;18.85;10.27;;;11.10;99.90;;;;;;5147540;27;20038;-80
2021/06/22 00:05:28;;;;;;;19.02;9.98;;;11.10;99.90;;;;;;5124409;27;20031;-80
2021/06/22 00:07:55;;;;;;;16.05;10.98;;;11.00;99.90;;;;;;5149544;27;20397;-80
2021/06/22 00:10:24;;;;;;;19.55;10.00;;;11.00;99.90;;;;;;5123746;27;20039;-80
2021/06/22 00:12:51;;;;;;;18.80;11.00;;;11.00;99.90;;;;;;5146114;27;20039;-80
2021/06/22 00:15:19;;;;;;;20.00;12.10;;;11.00;99.90;;;;;;5146014;27;20100;-80
2021/06/22 00:17:46;;;;;;;22.02;11.20;;;11.00;99.90;;;;;;5122154;27;20050;-80
2021/06/22 00:20:13;;;;;;;15.50;10.07;;;11.00;99.90;;;;;;5124187;27;20041;-80
2021/06/22 00:22:40;;;;;;;19.10;10.73;;;11.00;99.90;;;;;;5123637;27;20802;-72
2021/06/22 00:25:08;;;;;;;13.32;8.30;;;10.90;99.90;;;;;;5125569;27;20397;-71
2021/06/22 00:27:34;;;;;;;20.70;10.68;;;10.90;99.90;;;;;;5141942;27;20039;-71
2021/06/22 00:30:00;;;;;;;26.13;11.40;;;11.00;99.90;;;;;;5108989;27;20046;-71
2021/06/22 00:32:26;;;;;;;17.50;9.82;;;10.90;99.90;;;;;;5125626;27;20115;-71
2021/06/22 00:34:55;;;;;;;14.18;8.32;;;10.90;99.90;;;;;;5140016;27;20040;-71
2021/06/22 00:37:21;;;;;;;22.10;9.88;;;10.90;99.90;;;;;;5110806;27;20031;-71
2021/06/22 00:39:47;;;;;;;14.02;8.63;;;10.90;99.90;;;;;;5141272;27;20054;-71
2021/06/22 00:42:13;;;;;;;16.67;9.00;;;10.90;99.90;;;;;;5122159;27;20440;-71
2021/06/22 00:44:52;;;;;;;15.52;8.77;;;10.90;99.90;;;;;;5106065;27;20042;-71
2021/06/22 00:47:19;;;;;;;17.38;9.68;;;10.90;99.90;;;;;;5140511;27;20424;-71
2021/06/22 00:49:46;;;;;;;15.48;8.98;;;10.90;99.90;;;;;;5138884;27;20062;-80
2021/06/22 00:52:13;;;;;;;17.40;9.32;;;10.90;99.90;;;;;;5141660;27;20118;-71
2021/06/22 00:54:39;;;;;;;14.75;8.35;;;10.90;99.90;;;;;;5126748;27;20270;-71
2021/06/22 00:57:09;;;;;;;20.10;10.07;;;10.80;99.90;;;;;;5140256;27;20127;-71
2021/06/22 00:59:35;;;;;;;16.00;9.90;;;10.80;99.90;;;;;;5124269;27;20039;-71
2021/06/22 01:02:05;;;;;;;18.45;9.52;;;10.80;99.90;;;;;;5139124;27;20035;-71
2021/06/22 01:04:32;;;;;;;15.20;8.70;;;10.90;99.90;;;;;;5101821;27;20038;-71
2021/06/22 01:06:59;;;;;;;12.82;8.80;;;10.80;99.90;;;;;;5141583;27;20049;-71
2021/06/22 01:09:26;;;;;;;11.88;8.57;;;10.90;99.90;;;;;;5108570;27;20069;-71
2021/06/22 01:11:52;;;;;;;16.90;8.20;;;10.90;99.90;;;;;;5127167;27;20042;-71
2021/06/22 01:14:18;;;;;;;18.27;10.63;;;11.00;99.90;;;;;;5141849;27;20838;-71
2021/06/22 01:16:45;;;;;;;16.52;9.52;;;11.00;99.90;;;;;;5145001;27;20031;-70
2021/06/22 01:19:11;;;;;;;14.55;8.95;;;11.10;99.90;;;;;;5108345;27;20039;-71
2021/06/22 01:21:38;;;;;;;14.45;9.43;;;11.10;99.90;;;;;;5138961;27;20035;-71
2021/06/22 01:24:20;;;;;;;16.95;10.65;;;11.10;99.90;;;;;;5135659;27;20061;-72
2021/06/22 01:26:46;;;;;;;21.00;11.32;;;11.20;99.90;;;;;;5137688;27;20127;-71
2021/06/22 01:29:13;;;;;;;24.42;10.82;;;11.20;99.90;;;;;;5126170;27;20180;-71
2021/06/22 01:31:40;;;;;;;16.02;9.50;;;11.30;99.90;;;;;;5144456;27;20034;-71
2021/06/22 01:34:09;;;;;;;17.85;9.85;;;11.30;99.90;;;;;;5125873;27;20031;-71
2021/06/22 01:36:35;;;;;;;17.10;9.07;;;11.30;99.90;;;;;;5124724;27;20113;-71
2021/06/22 01:39:05;;;;;;;18.20;10.60;;;11.40;99.90;;;;;;5144573;27;20045;-71
2021/06/22 01:41:31;;;;;;;22.17;11.13;;;11.40;99.90;;;;;;5127583;27;20613;-71
2021/06/22 01:43:59;;;;;;;19.90;10.70;;;11.40;99.90;;;;;;5143403;27;21034;-71
2021/06/22 01:46:25;;;;;;;15.68;8.45;;;11.50;99.90;;;;;;5144690;27;20109;-71
2021/06/22 01:48:51;;;;;;;15.32;9.88;;;11.50;99.90;;;;;;5139337;27;20130;-71
2021/06/22 01:51:18;;;;;;;17.73;9.52;;;11.50;99.90;;;;;;5143860;27;20437;-71
2021/06/22 01:53:55;;;;;;;19.60;9.52;;;11.50;99.90;;;;;;5120350;27;20039;-71
2021/06/22 01:56:22;;;;;;;16.83;9.02;;;11.50;99.90;;;;;;5141528;27;20089;-80
2021/06/22 01:58:49;;;;;;;23.92;10.85;;;11.60;99.90;;;;;;5120735;27;21832;-80
2021/06/22 02:01:15;;;;;;;22.20;10.40;;;11.60;99.90;;;;;;5134320;27;20037;-71
2021/06/22 02:03:41;;;;;;;18.10;9.88;;;11.60;99.90;;;;;;5101112;27;20039;-71
2021/06/22 02:06:07;;;;;;;16.42;9.60;;;11.70;99.90;;;;;;5102484;27;20481;-79
2021/06/22 02:08:33;;;;;;;18.88;9.35;;;11.70;99.90;;;;;;5112807;27;20031;-80
2021/06/22 02:11:00;;;;;;;17.98;10.38;;;11.70;99.90;;;;;;5121047;27;20031;-80
2021/06/22 02:13:28;;;;;;;16.20;9.60;;;11.70;99.90;;;;;;5138359;27;20035;-80
2021/06/22 02:15:54;;;;;;;16.33;10.13;;;11.70;99.90;;;;;;5102441;27;20499;-78
2021/06/22 02:18:20;;;;;;;17.98;9.57;;;11.80;99.90;;;;;;5136693;27;20041;-79
2021/06/22 02:20:46;;;;;;;17.48;10.30;;;11.70;99.90;;;;;;5141302;27;20034;-79
2021/06/22 02:23:12;;;;;;;17.60;10.63;;;11.70;99.90;;;;;;5121163;27;20038;-80
2021/06/22 02:25:39;;;;;;;19.20;11.77;;;11.70;99.90;;;;;;5115188;27;21175;-79
2021/06/22 02:28:13;;;;;;;17.52;10.80;;;11.70;99.90;;;;;;5139956;27;20046;-80
2021/06/22 02:30:40;;;;;;;21.58;12.45;;;11.70;99.90;;;;;;5139476;27;20073;-79
2021/06/22 02:33:07;;;;;;;18.85;12.38;;;11.60;99.90;;;;;;5118222;27;20049;-80
2021/06/22 02:35:34;;;;;;;19.85;13.32;;;11.60;99.90;;;;;;5136036;27;20126;-80
2021/06/22 02:38:01;;;;;;;21.60;13.88;;;11.50;99.90;;;;;;5135285;27;20052;-79
2021/06/22 02:40:28;;;;;;;22.65;13.07;;;11.40;99.90;;;;;;5136990;27;20360;-80
2021/06/22 02:42:54;;;;;;;23.40;13.85;;;11.40;99.90;;;;;;5136300;27;20043;-80
2021/06/22 02:45:20;;;;;;;21.80;14.30;;;11.30;99.90;;;;;;5121872;27;20114;-81
2021/06/22 02:47:47;;;;;;;20.65;14.27;;;11.30;99.90;;;;;;5136425;27;20039;-80
2021/06/22 02:50:15;;;;;;;20.60;15.30;;;11.30;99.90;;;;;;5103794;27;20485;-80
2021/06/22 02:52:44;;;;;;;24.88;15.40;;;11.30;99.90;;;;;;5102544;27;20151;-80
2021/06/22 02:55:20;;;;;;;23.60;16.73;;;11.20;99.90;;;;;;5118013;27;20053;-81
2021/06/22 02:57:46;;;;;;;24.30;16.48;;;11.20;99.90;;;;;;5120915;27;20046;-80
2021/06/22 03:00:13;;;;;;;23.75;17.67;;;11.10;99.90;;;;;;5120187;27;20489;-81
2021/06/22 03:02:39;;;;;;;28.02;18.08;;;11.20;99.90;;;;;;5139863;27;20490;-80
2021/06/22 03:05:05;;;;;;;29.08;17.58;;;11.10;99.90;;;;;;5136714;27;20102;-80
2021/06/22 03:07:32;;;;;;;25.30;17.77;;;11.10;99.90;;;;;;5121413;27;20042;-80
2021/06/22 03:09:58;;;;;;;28.05;18.80;;;11.10;99.90;;;;;;5104277;27;20039;-80
2021/06/22 03:12:24;;;;;;;27.23;18.38;;;11.10;99.90;;;;;;5122000;27;20083;-80
2021/06/22 03:14:49;;;;;;;24.50;16.77;;;11.10;99.90;;;;;;5102853;27;20043;-80
2021/06/22 03:17:15;;;;;;;24.92;18.40;;;11.00;99.90;;;;;;5103694;27;20095;-80
2021/06/22 03:19:41;;;;;;;22.00;15.80;;;11.00;99.90;;;;;;5086102;27;20413;-80
2021/06/22 03:22:07;;;;;;;24.45;17.77;;;11.00;99.90;;;;;;5120514;27;20043;-80
2021/06/22 03:24:33;;;;;;;23.80;17.83;;;11.00;99.90;;;;;;5119144;27;20083;-80
2021/06/22 03:26:59;;;;;;;25.75;18.27;;;11.00;99.90;;;;;;5117810;27;20110;-80
2021/06/22 03:29:25;;;;;;;26.02;17.63;;;11.00;99.90;;;;;;5123638;27;20047;-81
2021/06/22 03:31:52;;;;;;;26.30;17.02;;;11.00;99.90;;;;;;5105802;27;20045;-80
2021/06/22 03:34:21;;;;;;;23.27;16.90;;;11.00;99.90;;;;;;5125108;27;20378;-80
2021/06/22 03:36:48;;;;;;;19.63;15.50;;;10.90;99.90;;;;;;5104768;27;20184;-80
2021/06/22 03:39:14;;;;;;;24.00;17.88;;;10.90;99.90;;;;;;5122851;27;20043;-80
2021/06/22 03:41:39;;;;;;;23.83;17.17;;;10.90;99.90;;;;;;5142506;27;20049;-80
2021/06/22 03:44:06;;;;;;;25.17;17.77;;;10.90;99.90;;;;;;5105474;27;20047;-80
2021/06/22 03:46:32;;;;;;;24.42;17.52;;;10.90;99.90;;;;;;5123587;27;20035;-80
2021/06/22 03:48:58;;;;;;;22.95;14.90;;;10.80;99.90;;;;;;5138550;27;20202;-80
2021/06/22 03:51:24;;;;;;;18.55;12.93;;;10.80;99.90;;;;;;5121729;27;20046;-80
2021/06/22 03:53:50;;;;;;;17.45;13.18;;;10.70;99.90;;;;;;5121593;27;20046;-80
2021/06/22 03:56:17;;;;;;;17.83;12.63;;;10.70;99.90;;;;;;5122018;27;20046;-80
2021/06/22 03:58:45;;;;;;;20.58;14.40;;;10.70;99.90;;;;;;5123581;27;20138;-80
2021/06/22 04:01:11;;;;;;;22.90;14.35;;;10.60;99.90;;;;;;5121616;27;20043;-80
2021/06/22 04:03:37;;;;;;;18.02;12.93;;;10.60;99.90;;;;;;5124306;27;20043;-80
2021/06/22 04:06:17;;;;;;;19.70;15.18;;;10.60;99.90;;;;;;5112368;27;20031;-80
2021/06/22 04:08:43;;;;;;;21.95;14.80;;;10.60;99.90;;;;;;5123246;27;20053;-80
2021/06/22 04:11:09;;;;;;;21.83;15.65;;;10.60;99.90;;;;;;5106945;27;20031;-80
2021/06/22 04:13:36;;;;;;;18.83;13.73;;;10.60;99.90;;;;;;5141742;27;20042;-80
2021/06/22 04:16:03;;;;;;;19.30;15.05;;;10.60;99.90;;;;;;5123877;27;20138;-80
2021/06/22 04:18:29;;;;;;;20.02;15.45;;;10.60;99.90;;;;;;5106965;27;21564;-80
2021/06/22 04:20:55;;;;;;;24.20;14.52;;;10.70;99.90;;;;;;5126454;27;20121;-79
2021/06/22 04:23:21;;;;;;;25.02;16.08;;;10.60;99.90;;;;;;5122932;27;20039;-80
2021/06/22 04:25:49;;;;;;;25.65;17.20;;;10.60;99.90;;;;;;5106226;27;20049;-80
2021/06/22 04:28:16;;;;;;;30.88;18.15;;;10.60;99.90;;;;;;5141431;27;20049;-79
2021/06/22 04:30:45;;;;;;;26.95;17.27;;;10.60;99.90;;;;;;5124759;27;20034;-80
2021/06/22 04:33:12;;;;;;;24.40;16.42;;;10.50;99.90;;;;;;5123685;27;20047;-80
2021/06/22 04:35:38;;;;;;;21.55;15.00;;;10.50;99.90;;;;;;5106370;27;20062;-79
2021/06/22 04:38:10;;;;;;;23.02;16.00;;;10.50;99.90;;;;;;5121443;27;20042;-80
2021/06/22 04:40:38;;;;;;;17.77;15.25;;;10.50;99.90;;;;;;5143422;27;20658;-80
2021/06/22 04:43:06;;;;;;;19.15;15.20;;;10.50;99.90;;;;;;5121258;27;20572;-80
2021/06/22 04:45:33;;;;;;;19.30;14.85;;;10.50;99.90;;;;;;5124843;27;20580;-80
2021/06/22 04:47:59;;;;;;;23.65;15.88;;;10.60;99.90;;;;;;5141844;27;20043;-80
2021/06/22 04:50:25;;;;;;;19.35;15.05;;;10.60;99.90;;;;;;5123880;27;20034;-80
2021/06/22 04:52:52;;;;;;;19.40;15.13;;;10.80;99.90;;;;;;5141204;27;20961;-80
2021/06/22 04:55:23;;;;;;;17.27;15.02;;;10.70;99.90;;;;;;5122547;27;20500;-71
2021/06/22 04:57:49;;;;;;;20.30;15.27;;;10.70;99.90;;;;;;5121371;27;20492;-71
2021/06/22 05:00:16;;;;;;;19.17;14.93;;;10.80;99.90;;;;;;5120897;27;20031;-72
2021/06/22 05:02:43;;;;;;;20.63;15.88;;;10.80;99.90;;;;;;5140140;27;20127;-71
2021/06/22 05:05:13;;;;;;;23.70;16.83;;;10.90;99.90;;;;;;5100075;27;20041;-71
2021/06/22 05:07:40;;;;;;;23.30;17.38;;;11.00;99.90;;;;;;5121064;27;20046;-72
2021/06/22 05:10:07;;;;;;;26.02;17.20;;;11.10;99.90;;;;;;5117818;27;20054;-71
2021/06/22 05:12:34;;;;;;;22.65;17.02;;;11.20;99.90;;;;;;5120598;27;20136;-71
2021/06/22 05:15:00;;;;;;;30.60;20.77;;;11.30;99.90;;;;;;5121649;27;20153;-71
2021/06/22 05:17:25;;;;;;;24.05;18.25;;;11.30;99.90;;;;;;5124505;27;20125;-71
2021/06/22 05:19:51;;;;;;;30.15;18.90;;;11.40;99.90;;;;;;5140943;27;20170;-71
2021/06/22 05:22:17;;;;;;;28.17;19.27;;;11.40;99.90;;;;;;5139803;27;20209;-71
2021/06/22 05:24:44;;;;;;;27.63;20.77;;;11.50;99.90;;;;;;5121561;27;20035;-72
2021/06/22 05:27:12;;;;;;;22.75;18.60;;;11.50;99.90;;;;;;5139198;27;20042;-71
2021/06/22 05:29:42;;;;;;;26.30;18.85;;;11.50;99.90;;;;;;5136576;27;20046;-72
2021/06/22 05:32:09;;;;;;;30.55;19.65;;;11.50;99.90;;;;;;5136915;27;20073;-71
2021/06/22 05:34:35;;;;;;;31.33;20.40;;;11.50;99.90;;;;;;5132382;27;20047;-72
2021/06/22 05:37:01;;;;;;;25.35;19.80;;;11.60;99.90;;;;;;5121779;27;20163;-71
2021/06/22 05:39:31;;;;;;;26.65;18.83;;;11.70;99.90;;;;;;5119842;27;20027;-72
2021/06/22 05:41:58;;;;;;;21.15;17.75;;;11.80;99.90;;;;;;5105585;27;20064;-72
2021/06/22 05:44:24;;;;;;;25.83;19.35;;;11.90;99.90;;;;;;5121479;27;20042;-72
2021/06/22 05:46:50;;;;;;;25.85;19.25;;;12.00;99.90;;;;;;5118516;27;20511;-71
2021/06/22 05:49:16;;;;;;;24.27;17.42;;;12.10;99.60;;;;;;5138385;27;20555;-72
2021/06/22 05:51:42;;;;;;;23.90;17.42;;;12.10;99.30;;;;;;5115386;27;20087;-73
2021/06/22 05:54:08;;;;;;;25.80;20.33;;;12.20;98.70;;;;;;5117811;27;20054;-71
2021/06/22 05:56:34;;;;;;;26.52;18.85;;;12.30;98.70;;;;;;5119617;27;20055;-72
2021/06/22 05:59:00;;;;;;;25.38;16.33;;;12.40;99.10;;;;;;5137018;27;20043;-80
2021/06/22 06:01:26;;;;;;;24.45;16.80;;;12.50;97.80;;;;;;5138810;27;20062;-80
2021/06/22 06:03:52;;;;;;;28.80;16.77;;;12.70;97.50;;;;;;5099870;27;20148;-80
2021/06/22 06:06:17;;;;;;;20.52;15.32;;;12.80;96.80;;;;;;5118786;27;20165;-80
2021/06/22 06:08:44;;;;;;;20.23;14.98;;;12.90;97.10;;;;;;5136822;27;20034;-82
2021/06/22 06:11:10;;;;;;;24.38;15.95;;;12.90;97.10;;;;;;5119218;27;20038;-80
2021/06/22 06:13:37;;;;;;;22.25;14.55;;;13.00;96.60;;;;;;5118050;27;20039;-80
2021/06/22 06:16:07;;;;;;;20.33;14.63;;;13.00;96.00;;;;;;5137676;27;20125;-80
2021/06/22 06:18:34;;;;;;;22.33;13.60;;;13.10;96.20;;;;;;5120398;27;20043;-80
2021/06/22 06:21:01;;;;;;;18.02;13.40;;;13.10;96.00;;;;;;5137500;27;20086;-80
2021/06/22 06:23:39;;;;;;;18.80;12.43;;;13.20;95.90;;;;;;5120321;27;20042;-80
2021/06/22 06:26:06;;;;;;;18.00;12.63;;;13.30;96.50;;;;;;5118474;27;20042;-72
2021/06/22 06:28:36;;;;;;;17.85;11.57;;;13.30;95.90;;;;;;5101228;27;20287;-71
2021/06/22 06:31:02;;;;;;;17.38;11.98;;;13.50;95.00;;;;;;5102435;27;20497;-72
2021/06/22 06:33:28;;;;;;;19.83;12.10;;;13.50;95.30;;;;;;5116842;27;20038;-81
2021/06/22 06:35:54;;;;;;;16.08;10.32;;;13.60;94.80;;;;;;5117396;27;20746;-81
2021/06/22 06:38:21;;;;;;;18.50;10.65;;;13.70;94.60;;;;;;5099155;27;21890;-80
2021/06/22 06:40:48;;;;;;;21.15;11.20;;;13.70;94.90;;;;;;5115267;27;20493;-80
2021/06/22 06:43:14;;;;;;;17.45;10.68;;;13.80;95.10;;;;;;5097609;27;20049;-79
2021/06/22 06:45:40;;;;;;;14.68;9.90;;;13.90;94.30;;;;;;5114022;27;20452;-80
2021/06/22 06:48:09;;;;;;;20.67;11.25;;;14.00;94.90;;;;;;5117788;27;20118;-80
2021/06/22 06:50:35;;;;;;;15.80;9.93;;;14.00;95.50;;;;;;5132563;27;20438;-80
2021/06/22 06:53:00;;;;;;;19.92;9.45;;;14.20;95.60;;;;;;5100730;27;20070;-80
2021/06/22 06:55:32;;;;;;;14.63;9.63;;;14.30;94.40;;;;;;5141543;27;20046;-82
2021/06/22 06:58:00;;;;;;;15.88;9.43;;;14.40;94.10;;;;;;5117434;27;20553;-80
2021/06/22 07:00:29;;;;;;;13.23;8.93;;;14.50;93.20;;;;;;5122951;27;20039;-80
2021/06/22 07:02:55;;;;;;;18.83;9.50;;;14.60;93.60;;;;;;5140201;27;20050;-82
2021/06/22 07:05:22;;;;;;;15.40;7.95;;;14.60;93.50;;;;;;5143718;27;20035;-81
2021/06/22 07:07:48;;;;;;;16.50;8.15;;;14.70;93.50;;;;;;5123929;27;20039;-81
2021/06/22 07:10:15;;;;;;;17.92;9.13;;;14.80;93.20;;;;;;5093099;27;20039;-81
2021/06/22 07:12:42;;;;;;;15.38;8.15;;;15.00;93.20;;;;;;5122992;27;20374;-82
2021/06/22 07:15:11;;;;;;;17.38;8.35;;;15.20;92.20;;;;;;5124925;27;20066;-82
2021/06/22 07:17:38;;;;;;;16.35;7.88;;;15.20;92.10;;;;;;5109596;27;20041;-81
2021/06/22 07:20:05;;;;;;;14.57;6.75;;;15.20;92.20;;;;;;5138489;27;20039;-81
2021/06/22 07:22:32;;;;;;;11.18;6.55;;;15.00;91.90;;;;;;5106235;27;20038;-84
2021/06/22 07:24:58;;;;;;;15.40;6.68;;;15.10;90.80;;;;;;5106895;27;20507;-82
2021/06/22 07:27:24;;;;;;;19.00;7.10;;;15.20;90.80;;;;;;5125234;27;20077;-82
2021/06/22 07:29:50;;;;;;;14.13;6.88;;;15.30;91.90;;;;;;5123916;27;20047;-82
2021/06/22 07:32:16;;;;;;;14.50;7.00;;;15.50;90.60;;;;;;5107723;27;20042;-80
2021/06/22 07:34:42;;;;;;;12.88;6.45;;;15.60;89.90;;;;;;5089782;27;20548;-80
2021/06/22 07:37:07;;;;;;;12.95;7.20;;;15.50;90.90;;;;;;5121830;27;20107;-81
2021/06/22 07:39:33;;;;;;;15.52;6.95;;;15.60;91.50;;;;;;5142405;27;20054;-81
2021/06/22 07:42:03;;;;;;;13.73;6.97;;;15.60;91.40;;;;;;5105947;27;20046;-80
2021/06/22 07:44:29;;;;;;;16.80;5.90;;;15.70;91.90;;;;;;5138819;27;20044;-81
2021/06/22 07:46:55;;;;;;;11.90;5.50;;;15.90;91.20;;;;;;5105071;27;20038;-80
2021/06/22 07:49:22;;;;;;;12.52;5.57;;;16.00;89.20;;;;;;5121384;27;20045;-80
2021/06/22 07:51:48;;;;;;;13.45;5.82;;;16.00;88.70;;;;;;5120258;27;20061;-80
2021/06/22 07:54:19;;;;;;;13.80;6.07;;;16.00;89.40;;;;;;5105222;27;20055;-81
2021/06/22 07:56:46;;;;;;;13.07;5.63;;;16.00;89.50;;;;;;5123990;27;20133;-82
2021/06/22 07:59:12;;;;;;;12.35;5.30;;;16.00;90.30;;;;;;5134783;27;20493;-81
2021/06/22 08:01:38;;;;;;;10.88;5.40;;;16.30;88.90;;;;;;5100896;27;20045;-81
2021/06/22 08:04:04;;;;;;;11.98;5.53;;;16.50;90.30;;;;;;5119344;27;20039;-79
2021/06/22 08:06:31;;;;;;;9.35;4.57;;;16.60;89.60;;;;;;5102234;27;20042;-79
2021/06/22 08:08:58;;;;;;;10.80;4.90;;;16.90;87.70;;;;;;5104560;27;20038;-78
2021/06/22 08:11:24;;;;;;;8.98;4.65;;;17.00;86.10;;;;;;5123711;27;20379;-80
2021/06/22 08:13:50;;;;;;;13.60;5.53;;;16.90;84.50;;;;;;5088053;27;20050;-80
2021/06/22 08:16:16;;;;;;;12.77;5.55;;;16.70;85.10;;;;;;5120642;27;20257;-81
2021/06/22 08:18:42;;;;;;;12.88;4.85;;;16.50;86.80;;;;;;5104530;27;20577;-80
2021/06/22 08:21:08;;;;;;;14.95;6.00;;;16.30;86.70;;;;;;5123342;27;20167;-80
2021/06/22 08:23:34;;;;;;;11.80;4.85;;;16.20;89.20;;;;;;5122198;27;20087;-80
2021/06/22 08:26:01;;;;;;;9.95;4.72;;;16.10;89.50;;;;;;5138254;27;20242;-80
2021/06/22 08:28:30;;;;;;;11.52;5.28;;;16.20;88.40;;;;;;5141786;27;20497;-80
2021/06/22 08:30:56;;;;;;;11.70;5.13;;;16.20;90.00;;;;;;5119660;27;20344;-82
2021/06/22 08:33:22;;;;;;;10.75;5.10;;;16.20;89.40;;;;;;5105837;27;20042;-80
2021/06/22 08:35:48;;;;;;;11.02;4.25;;;16.20;88.90;;;;;;5137634;27;20034;-80
2021/06/22 08:38:16;;;;;;;11.77;4.95;;;16.20;89.00;;;;;;5122436;27;20042;-80
2021/06/22 08:40:45;;;;;;;10.38;4.40;;;16.30;86.80;;;;;;5103613;27;20045;-81
2021/06/22 08:43:14;;;;;;;16.27;4.88;;;16.20;83.70;;;;;;5122070;27;20058;-82
2021/06/22 08:45:41;;;;;;;9.52;4.68;;;16.10;81.70;;;;;;5121932;27;20118;-80
2021/06/22 08:48:09;;;;;;;8.95;4.15;;;15.90;82.90;;;;;;5135870;27;20047;-81
2021/06/22 08:50:38;;;;;;;13.05;4.57;;;15.80;83.90;;;;;;5122966;27;20046;-80
2021/06/22 08:53:04;;;;;;;11.98;5.00;;;15.70;84.70;;;;;;5116388;27;20046;-80
2021/06/22 08:55:31;;;;;;;10.85;4.45;;;15.70;86.90;;;;;;5118086;27;20373;-80
2021/06/22 08:58:09;;;;;;;7.97;4.28;;;15.70;87.00;;;;;;5137590;27;20428;-79
2021/06/22 09:00:39;;;;;;;8.07;4.00;;;15.70;84.90;;;;;;5122289;27;20161;-80
2021/06/22 09:03:11;;;;;;;11.05;4.88;;;15.90;85.00;;;;;;5125578;27;20073;-81
2021/06/22 09:05:39;;;;;;;11.00;4.28;;;16.10;84.90;;;;;;5135197;27;20038;-81
2021/06/22 09:08:05;;;;;;;11.73;3.97;;;16.40;84.50;;;;;;5124391;27;20036;-81
2021/06/22 09:10:36;;;;;;;9.55;4.20;;;16.70;82.40;;;;;;5143118;27;20039;-81
2021/06/22 09:13:14;;;;;;;10.40;4.07;;;17.00;82.40;;;;;;5107242;27;20054;-71
2021/06/22 09:15:42;;;;;;;9.30;3.80;;;17.20;79.50;;;;;;5122462;27;20041;-82
2021/06/22 09:18:24;;;;;;;10.93;3.45;;;17.40;79.60;;;;;;5118540;27;20043;-82
2021/06/22 09:20:54;;;;;;;9.35;4.13;;;17.50;78.80;;;;;;5141409;27;20501;-82
2021/06/22 09:23:34;;;;;;;8.75;4.07;;;17.60;79.80;;;;;;5139701;27;20087;-82
2021/06/22 09:26:08;;;;;;;7.60;3.65;;;17.80;77.70;;;;;;5120211;27;20340;-81
2021/06/22 09:28:34;;;;;;;8.70;4.03;;;17.90;76.40;;;;;;5101041;27;20050;-78
2021/06/22 09:31:02;;;;;;;7.47;3.10;;;18.00;76.60;;;;;;5122919;27;20045;-79
2021/06/22 09:33:41;;;;;;;8.50;3.10;;;18.10;73.30;;;;;;5122886;27;20079;-81
2021/06/22 09:36:30;;;;;;;13.05;3.92;;;18.00;69.10;;;;;;5118764;27;20122;-80
2021/06/22 09:39:05;;;;;;;8.45;3.67;;;17.60;71.90;;;;;;5114756;27;20035;-79
2021/06/22 09:41:42;;;;;;;7.70;3.50;;;17.40;75.10;;;;;;5143427;27;20050;-80
2021/06/22 09:44:11;;;;;;;8.88;3.70;;;17.30;77.40;;;;;;5118443;27;20118;-81
2021/06/22 09:46:40;;;;;;;8.73;3.28;;;17.30;79.40;;;;;;5122445;27;20091;-80
2021/06/22 09:49:08;;;;;;;7.30;3.65;;;17.40;78.00;;;;;;5114803;27;20577;-81
2021/06/22 09:51:38;;;;;;;6.05;3.55;;;17.40;77.70;;;;;;5117482;27;20064;-81
2021/06/22 09:54:36;;;;;;;8.23;3.70;;;17.20;76.70;;;;;;5141836;27;20046;-81
2021/06/22 09:57:13;;;;;;;8.45;3.90;;;17.30;79.90;;;;;;5121431;27;20380;-81
2021/06/22 09:59:55;;;;;;;6.85;3.67;;;17.60;80.40;;;;;;5138407;27;20122;-81
2021/06/22 10:02:24;;;;;;;7.65;3.40;;;17.90;76.40;;;;;;5118821;27;20035;-82
2021/06/22 10:04:51;;;;;;;13.82;4.28;;;18.10;71.60;;;;;;5115932;27;20042;-82
2021/06/22 10:07:23;;;;;;;9.68;4.05;;;18.10;71.20;;;;;;5131129;27;20395;-81
2021/06/22 10:10:07;;;;;;;9.05;3.45;;;18.00;73.40;;;;;;5135348;27;20080;-72
2021/06/22 10:12:39;;;;;;;8.18;4.07;;;17.80;75.30;;;;;;5120278;27;20433;-72
2021/06/22 10:15:05;;;;;;;12.27;4.35;;;17.70;73.80;;;;;;5113542;27;20099;-73
2021/06/22 10:17:35;;;;;;;8.55;3.88;;;17.60;73.00;;;;;;5121430;27;20479;-72
2021/06/22 10:20:06;;;;;;;9.00;3.60;;;17.70;76.20;;;;;;5098952;27;20545;-72
2021/06/22 10:22:35;;;;;;;5.93;3.50;;;17.80;73.70;;;;;;5114688;27;20304;-72
2021/06/22 10:25:03;;;;;;;9.07;3.87;;;17.80;73.40;;;;;;5130349;27;20046;-73
2021/06/22 10:27:29;;;;;;;9.73;4.72;;;17.70;72.00;;;;;;5127105;27;20517;-72
2021/06/22 10:30:03;;;;;;;7.57;3.78;;;17.70;72.50;;;;;;5128485;27;20335;-72
2021/06/22 10:32:31;;;;;;;10.93;3.70;;;17.70;73.70;;;;;;5115324;27;20390;-72
2021/06/22 10:35:06;;;;;;;9.15;4.45;;;17.70;71.20;;;;;;5115753;27;20349;-71
2021/06/22 10:37:52;;;;;;;7.82;3.63;;;17.70;69.80;;;;;;5136887;27;20118;-72
2021/06/22 10:40:39;;;;;;;9.07;3.58;;;17.60;72.90;;;;;;5134774;27;20490;-72
2021/06/22 10:43:06;;;;;;;8.57;3.95;;;17.40;74.30;;;;;;5132526;27;20043;-72
2021/06/22 10:45:51;;;;;;;8.98;4.00;;;17.30;75.60;;;;;;5114793;27;20114;-72
2021/06/22 10:48:21;;;;;;;7.93;3.88;;;17.30;73.20;;;;;;5131875;27;20118;-72
2021/06/22 10:50:46;;;;;;;8.90;3.88;;;17.30;74.60;;;;;;5117461;27;20465;-72
2021/06/22 10:53:12;;;;;;;8.30;3.80;;;17.30;74.30;;;;;;5097509;27;20039;-72
2021/06/22 10:55:41;;;;;;;9.73;3.95;;;17.30;74.00;;;;;;5132851;27;20035;-72
2021/06/22 10:58:08;;;;;;;14.15;4.53;;;17.30;75.50;;;;;;5132432;27;20054;-72
2021/06/22 11:00:37;;;;;;;8.68;3.90;;;17.30;76.40;;;;;;5133350;27;20124;-72
2021/06/22 11:03:16;;;;;;;9.30;3.88;;;17.40;75.50;;;;;;5133761;27;20045;-72
2021/06/22 11:05:45;;;;;;;9.33;4.50;;;17.50;75.50;;;;;;5122038;27;20091;-71
2021/06/22 11:08:15;;;;;;;9.63;4.07;;;17.60;76.40;;;;;;5105751;27;20623;-72
2021/06/22 11:10:56;;;;;;;8.18;4.10;;;17.80;76.30;;;;;;5099226;27;20042;-81
2021/06/22 11:13:31;;;;;;;10.40;4.85;;;17.90;74.80;;;;;;5140948;27;20154;-82
2021/06/22 11:15:56;;;;;;;10.23;4.18;;;17.90;73.40;;;;;;5114801;27;20081;-83
2021/06/22 11:18:22;;;;;;;8.57;4.20;;;17.90;73.00;;;;;;5101455;27;20047;-72
2021/06/22 11:20:55;;;;;;;9.93;4.20;;;17.90;72.00;;;;;;5117481;27;20027;-72
2021/06/22 11:23:23;;;;;;;10.30;5.10;;;17.80;73.20;;;;;;5125732;27;20035;-72
2021/06/22 11:26:03;;;;;;;9.18;4.28;;;17.80;74.70;;;;;;5120649;27;20050;-82
2021/06/22 11:28:54;;;;;;;8.45;4.60;;;17.90;76.20;;;;;;5118835;27;20039;-81
2021/06/22 11:31:41;;;;;;;13.38;5.03;;;18.10;75.20;;;;;;5130170;27;20035;-81
2021/06/22 11:34:11;;;;;;;11.20;4.60;;;18.30;75.40;;;;;;5136916;27;20493;-83
2021/06/22 11:36:49;;;;;;;9.32;4.85;;;18.40;73.10;;;;;;5138064;27;20100;-83
2021/06/22 11:39:21;;;;;;;10.43;4.60;;;18.40;70.80;;;;;;5137713;27;20164;-82
2021/06/22 11:42:12;;;;;;;11.38;4.93;;;18.20;72.90;;;;;;5113840;27;20034;-81
2021/06/22 11:44:50;;;;;;;10.38;4.80;;;17.90;75.90;;;;;;5133791;27;20043;-72
2021/06/22 11:47:25;;;;;;;9.98;4.63;;;17.80;76.90;;;;;;5117978;27;20069;-71
2021/06/22 11:49:58;;;;;;;11.15;4.70;;;17.90;71.60;;;;;;5138461;27;20042;-72
2021/06/22 11:52:40;;;;;;;10.15;5.50;;;17.80;74.30;;;;;;5145156;27;20060;-73
2021/06/22 11:55:15;;;;;;;12.50;5.20;;;17.80;72.00;;;;;;5135567;27;20405;-72
2021/06/22 11:57:52;;;;;;;10.75;5.55;;;17.60;75.10;;;;;;5139184;27;20057;-72
2021/06/22 12:00:28;;;;;;;11.70;5.00;;;17.50;73.90;;;;;;5125817;27;20520;-72
2021/06/22 12:02:55;;;;;;;10.07;5.57;;;17.30;76.20;;;;;;5139667;27;20097;-72
2021/06/22 12:05:23;;;;;;;9.02;4.97;;;17.20;76.30;;;;;;5117236;27;20035;-72
2021/06/22 12:07:55;;;;;;;11.63;5.53;;;17.10;78.80;;;;;;5135309;27;20039;-73
2021/06/22 12:10:24;;;;;;;11.85;6.03;;;17.10;77.60;;;;;;5132612;27;20035;-72
2021/06/22 12:12:51;;;;;;;13.65;6.30;;;17.00;79.40;;;;;;5127687;27;20152;-74
2021/06/22 12:15:30;;;;;;;10.57;5.85;;;17.00;79.20;;;;;;5117130;27;20483;-72
2021/06/22 12:17:56;;;;;;;10.68;6.10;;;16.90;79.40;;;;;;5135476;27;20073;-72
2021/06/22 12:20:28;;;;;;;11.57;6.53;;;17.00;77.90;;;;;;5133957;27;20066;-82
2021/06/22 12:23:06;;;;;;;10.13;6.25;;;16.90;77.40;;;;;;5114577;27;20111;-80
2021/06/22 12:25:44;;;;;;;8.82;5.88;;;16.90;77.10;;;;;;5117900;27;20031;-84
2021/06/22 12:28:10;;;;;;;11.10;5.78;;;17.00;75.30;;;;;;5138700;27;20103;-81
2021/06/22 12:30:39;;;;;;;9.55;5.68;;;17.00;73.90;;;;;;5136328;27;20039;-80
2021/06/22 12:33:12;;;;;;;10.45;5.90;;;17.00;77.10;;;;;;5114822;27;20162;-82
2021/06/22 12:35:41;;;;;;;12.15;6.18;;;17.10;76.00;;;;;;5113629;27;20038;-80
2021/06/22 12:38:09;;;;;;;10.23;5.88;;;17.10;75.90;;;;;;5130941;27;20043;-80
2021/06/22 12:40:54;;;;;;;11.77;6.35;;;17.20;75.00;;;;;;5119572;27;20035;-81